Time;durP1;ratioP1;P1;durP2;ratioP2;P2;SDS_P1;SDS_P2;PMS_P1;PMS_P2;Temp;Humidity;BMP_temperature;BMP_pressure;BME280_temperature;BME280_humidity;BME280_pressure;Samples;Min_cycle;Max_cycle;Signal;HPM_P1;HPM_P2
2021/09/15 00:01:52;;;;;;;5.88;5.05;;;;;;;21.29;49.34;100141.50;4914312;29;20048;-86
2021/09/15 00:04:20;;;;;;;7.00;4.90;;;;;;;21.55;49.94;100146.13;4914185;29;20040;-86
2021/09/15 00:06:47;;;;;;;4.93;4.18;;;;;;;21.69;48.65;100138.47;4910828;29;20107;-89
2021/09/15 00:09:15;;;;;;;6.50;4.85;;;;;;;21.81;49.47;100146.22;4915668;29;20044;-89
2021/09/15 00:11:42;;;;;;;6.97;4.50;;;;;;;21.79;48.83;100142.91;4911481;29;20036;-89
2021/09/15 00:14:09;;;;;;;5.20;4.70;;;;;;;21.95;48.50;100143.88;4932074;29;20024;-90
2021/09/15 00:16:35;;;;;;;10.02;3.92;;;;;;;21.60;48.73;100143.84;4935384;29;20036;-89
2021/09/15 00:19:02;;;;;;;11.48;4.75;;;;;;;21.55;49.16;100146.13;4936196;29;20044;-90
2021/09/15 00:21:29;;;;;;;8.65;5.32;;;;;;;21.34;49.58;100144.56;4915583;29;20049;-89
2021/09/15 00:23:56;;;;;;;6.07;4.57;;;;;;;21.55;51.18;100146.13;4911762;29;20044;-90
2021/09/15 00:26:23;;;;;;;8.52;4.55;;;;;;;21.41;50.27;100145.66;4911968;29;20056;-90
2021/09/15 00:28:50;;;;;;;5.20;4.70;;;;;;;21.31;50.09;100138.75;4911964;29;20539;-89
2021/09/15 00:31:16;;;;;;;7.88;5.03;;;;;;;21.43;50.69;100143.69;4916052;29;20036;-88
2021/09/15 00:33:45;;;;;;;5.90;4.15;;;;;;;21.38;50.30;100139.81;4911785;29;20131;-85
2021/09/15 00:36:12;;;;;;;8.45;4.13;;;;;;;21.61;48.27;100135.72;4915254;29;20510;-86
2021/09/15 00:38:38;;;;;;;7.72;4.13;;;;;;;21.69;47.80;100137.66;4911154;29;20040;-86
2021/09/15 00:41:05;;;;;;;5.07;3.60;;;;;;;21.70;47.70;100137.50;4909385;29;20048;-87
2021/09/15 00:43:32;;;;;;;4.60;4.13;;;;;;;21.75;46.90;100137.03;4909564;29;20044;-86
2021/09/15 00:46:00;;;;;;;5.13;4.60;;;;;;;21.77;50.17;100129.75;4916809;29;20050;-86
2021/09/15 00:48:27;;;;;;;5.88;3.85;;;;;;;21.77;48.01;100129.75;4920640;29;20044;-86
2021/09/15 00:50:54;;;;;;;5.63;4.07;;;;;;;21.93;46.21;100131.72;4920499;29;20044;-87
2021/09/15 00:53:22;;;;;;;3.58;3.28;;;;;;;21.94;45.74;100131.59;4920306;29;20103;-89
2021/09/15 00:55:50;;;;;;;10.13;4.80;;;;;;;21.90;48.16;100130.22;4920866;29;20522;-90
2021/09/15 00:58:18;;;;;;;4.55;4.15;;;;;;;22.16;48.79;100129.47;4922700;29;20048;-89
2021/09/15 01:00:47;;;;;;;4.00;3.60;;;;;;;22.09;45.80;100136.34;4938847;29;20084;-86
2021/09/15 01:03:14;;;;;;;4.35;3.88;;;;;;;22.23;48.13;100134.00;4931279;29;20423;-88
2021/09/15 01:05:43;;;;;;;8.52;4.47;;;;;;;21.94;45.45;100131.59;4921496;29;20040;-89
2021/09/15 01:08:11;;;;;;;4.75;3.92;;;;;;;21.71;46.32;100125.06;4919286;29;20047;-90
2021/09/15 01:10:38;;;;;;;13.35;4.22;;;;;;;21.66;46.71;100117.56;4917787;29;20048;-85
2021/09/15 01:13:22;;;;;;;12.77;4.57;;;;;;;21.53;47.24;100124.22;4914231;29;20123;-86
2021/09/15 01:16:08;;;;;;;6.00;4.95;;;;;;;21.47;47.68;100120.34;4916978;29;20515;-85
2021/09/15 01:18:55;;;;;;;7.50;4.72;;;;;;;21.50;47.97;100120.03;4903470;29;20067;-86
2021/09/15 01:21:47;;;;;;;6.60;4.45;;;;;;;21.28;48.20;100123.91;4920457;29;20460;-88
2021/09/15 01:24:30;;;;;;;5.18;4.70;;;;;;;21.15;49.16;100129.59;4919362;29;20056;-89
2021/09/15 01:27:17;;;;;;;9.20;4.75;;;;;;;21.07;49.28;100120.69;4920461;29;20418;-89
2021/09/15 01:30:04;;;;;;;8.15;4.82;;;;;;;20.92;49.95;100123.81;4920929;29;20059;-89
2021/09/15 01:32:31;;;;;;;4.82;4.40;;;;;;;20.90;50.43;100130.25;4920628;29;20044;-88
2021/09/15 01:34:58;;;;;;;5.35;4.78;;;;;;;20.97;50.38;100126.03;4919017;29;20044;-88
2021/09/15 01:37:29;;;;;;;3.95;3.58;;;;;;;21.03;50.39;100129.91;4919141;29;20066;-88
2021/09/15 01:39:58;;;;;;;7.72;4.78;;;;;;;21.22;50.42;100131.63;4919164;29;20048;-89
2021/09/15 01:42:27;;;;;;;6.00;4.63;;;;;;;21.17;50.25;100130.25;4919044;29;20099;-88
2021/09/15 01:44:55;;;;;;;5.78;4.55;;;;;;;21.17;50.38;100132.06;4918789;29;20048;-89
2021/09/15 01:47:23;;;;;;;14.25;5.45;;;;;;;21.26;50.40;100125.06;4900898;29;20040;-88
2021/09/15 01:49:50;;;;;;;7.43;5.15;;;;;;;21.31;50.04;100121.00;4908361;29;20059;-90
2021/09/15 01:52:17;;;;;;;5.20;4.70;;;;;;;21.33;50.04;100121.69;4919766;29;20117;-89
2021/09/15 01:54:45;;;;;;;6.32;4.82;;;;;;;21.40;49.91;100125.41;4920282;29;20092;-89
2021/09/15 01:57:13;;;;;;;6.18;5.57;;;;;;;21.40;49.84;100114.78;4917305;29;20067;-89
2021/09/15 02:00:14;;;;;;;16.13;5.13;;;;;;;21.37;50.08;100116.94;4923561;29;20111;-89
2021/09/15 02:02:49;;;;;;;9.23;5.43;;;;;;;21.32;50.55;100109.41;4906163;29;20479;-89
2021/09/15 02:05:30;;;;;;;6.70;5.18;;;;;;;21.26;50.45;100104.69;4926313;29;20179;-88
2021/09/15 02:08:16;;;;;;;7.60;5.97;;;;;;;21.24;50.94;100108.44;4927237;29;20502;-90
2021/09/15 02:11:03;;;;;;;8.38;5.22;;;;;;;21.23;50.96;100110.28;4923538;29;20052;-89
2021/09/15 02:13:32;;;;;;;7.05;5.43;;;;;;;21.22;51.04;100108.59;4921687;29;20103;-91
2021/09/15 02:15:59;;;;;;;8.93;5.95;;;;;;;21.30;50.90;100118.50;4925576;29;20048;-90
2021/09/15 02:18:27;;;;;;;7.10;5.13;;;;;;;21.34;51.01;100123.34;4923260;29;20063;-89
2021/09/15 02:21:13;;;;;;;7.93;6.13;;;;;;;21.38;51.04;100122.06;4921976;29;20103;-89
2021/09/15 02:24:00;;;;;;;10.88;7.30;;;;;;;21.40;51.10;100120.09;4920614;29;20127;-91
2021/09/15 02:26:43;;;;;;;11.02;5.55;;;;;;;21.30;51.43;100124.63;4918576;29;20530;-88
2021/09/15 02:29:10;;;;;;;11.95;6.57;;;;;;;21.27;51.59;100127.56;4917800;29;20086;-88
2021/09/15 02:31:46;;;;;;;15.93;5.60;;;;;;;21.27;51.29;100127.56;4918170;29;20059;-87
2021/09/15 02:34:38;;;;;;;9.50;6.13;;;;;;;21.18;51.04;100123.13;4918996;29;20661;-88
2021/09/15 02:37:20;;;;;;;11.45;6.10;;;;;;;21.21;50.56;100122.84;4904579;29;20419;-88
2021/09/15 02:39:58;;;;;;;10.93;6.10;;;;;;;21.26;50.70;100125.91;4918178;29;20135;-89
2021/09/15 02:42:38;;;;;;;11.90;5.47;;;;;;;21.26;51.32;100122.41;4918186;29;20139;-89
2021/09/15 02:45:10;;;;;;;7.78;5.25;;;;;;;21.28;51.39;100123.91;4918389;29;20415;-88
2021/09/15 02:47:48;;;;;;;12.10;5.10;;;;;;;21.23;51.61;100117.41;4917973;29;20452;-88
2021/09/15 02:50:33;;;;;;;16.05;6.22;;;;;;;21.25;51.68;100121.56;4918199;29;20063;-89
2021/09/15 02:53:18;;;;;;;7.80;5.05;;;;;;;21.28;50.99;100120.44;4904383;29;20521;-89
2021/09/15 02:56:02;;;;;;;11.13;5.20;;;;;;;21.31;51.26;100128.13;4917596;29;20054;-88
2021/09/15 02:58:46;;;;;;;9.45;4.57;;;;;;;21.24;52.40;100125.19;4917414;29;20044;-88
2021/09/15 03:01:32;;;;;;;7.22;4.88;;;;;;;21.04;53.88;100131.56;4918219;29;20055;-88
2021/09/15 03:04:13;;;;;;;8.27;5.53;;;;;;;20.90;53.79;100125.78;4917187;29;20052;-88
2021/09/15 03:06:55;;;;;;;5.82;5.07;;;;;;;21.03;52.99;100128.09;4917232;29;20050;-89
2021/09/15 03:09:29;;;;;;;;;;;;;;;20.92;53.24;100122.97;4918201;29;20495;-87
2021/09/15 03:11:56;;;;;;;5.47;4.63;;;;;;;20.97;53.25;100130.50;4917480;29;19930;-87
2021/09/15 03:14:22;;;;;;;5.03;4.50;;;;;;;20.98;52.93;100122.38;4918144;29;20036;-87
2021/09/15 03:16:49;;;;;;;15.25;5.75;;;;;;;20.92;53.33;100125.63;4917280;29;20052;-87
2021/09/15 03:19:16;;;;;;;5.97;5.25;;;;;;;20.94;53.77;100128.97;4916818;29;20047;-87
2021/09/15 03:21:44;;;;;;;9.35;5.75;;;;;;;20.81;53.75;100129.28;4917233;29;20047;-86
2021/09/15 03:24:13;;;;;;;7.20;5.13;;;;;;;20.76;53.82;100134.19;4916913;29;20107;-89
2021/09/15 03:26:46;;;;;;;5.60;4.95;;;;;;;20.71;54.36;100136.44;4916894;29;20133;-86
2021/09/15 03:29:13;;;;;;;9.70;5.30;;;;;;;20.79;53.32;100133.91;4916559;29;20131;-86
2021/09/15 03:31:40;;;;;;;6.07;5.07;;;;;;;20.84;53.23;100121.06;4917233;29;20111;-93
2021/09/15 03:34:07;;;;;;;5.53;5.03;;;;;;;20.83;53.25;100108.81;4918467;29;20048;-92
2021/09/15 03:36:37;;;;;;;6.53;4.55;;;;;;;20.85;53.58;100109.50;4917707;29;20459;-92
2021/09/15 03:39:04;;;;;;;7.57;5.35;;;;;;;20.66;54.71;100109.56;4917218;29;20395;-93
2021/09/15 03:41:32;;;;;;;10.05;5.35;;;;;;;20.65;54.88;100118.47;4917138;29;20052;-91
2021/09/15 03:43:59;;;;;;;7.45;5.28;;;;;;;20.58;55.02;100120.03;4918424;29;20407;-92
2021/09/15 03:46:26;;;;;;;11.63;5.25;;;;;;;20.61;55.01;100122.38;4916704;29;20040;-91
2021/09/15 03:48:53;;;;;;;9.65;5.65;;;;;;;20.76;55.04;100123.59;4916599;29;20040;-92
2021/09/15 03:51:22;;;;;;;8.77;5.15;;;;;;;20.70;55.09;100132.13;4916399;29;20087;-91
2021/09/15 03:53:48;;;;;;;9.30;4.80;;;;;;;20.71;55.31;100133.78;4916734;29;20052;-91
2021/09/15 03:56:15;;;;;;;7.72;5.30;;;;;;;20.63;55.69;100134.53;4918219;29;20044;-91
2021/09/15 03:58:42;;;;;;;7.60;5.53;;;;;;;20.64;56.04;100128.25;4901102;29;20480;-91
2021/09/15 04:01:10;;;;;;;12.13;5.75;;;;;;;20.83;55.97;100113.28;4916222;29;20056;-86
2021/09/15 04:03:37;;;;;;;10.52;5.68;;;;;;;20.97;55.67;100110.13;4917639;29;20082;-88
2021/09/15 04:06:05;;;;;;;6.95;5.05;;;;;;;20.97;55.87;100109.28;4916615;29;20071;-88
2021/09/15 04:08:33;;;;;;;8.77;5.38;;;;;;;20.89;56.37;100113.53;4916784;29;20046;-88
2021/09/15 04:11:00;;;;;;;10.80;5.20;;;;;;;20.83;56.61;100121.22;4917242;29;20048;-91
2021/09/15 04:13:28;;;;;;;15.55;5.22;;;;;;;20.90;55.04;100114.34;4932339;29;20054;-84
2021/09/15 04:16:01;;;;;;;6.55;4.32;;;;;;;20.91;53.68;100119.50;4936959;29;20058;-83
2021/09/15 04:18:34;;;;;;;5.80;4.50;;;;;;;20.90;53.04;100109.88;4924023;29;20112;-81
2021/09/15 04:21:03;;;;;;;8.02;5.22;;;;;;;20.99;53.33;100121.44;4916794;29;20044;-80
2021/09/15 04:23:58;;;;;;;11.73;6.68;;;;;;;20.96;53.00;100129.66;4915579;29;20044;-80
2021/09/15 04:31:58;;;;;;;5.25;4.75;;;;;;;20.84;52.58;100152.03;4915571;29;20048;-82
2021/09/15 04:34:25;;;;;;;7.97;5.10;;;;;;;20.68;52.63;100152.63;4915061;29;20079;-82
2021/09/15 04:36:57;;;;;;;9.13;4.72;;;;;;;20.73;53.45;100128.38;4916617;29;20036;-81
2021/09/15 04:39:26;;;;;;;8.05;4.90;;;;;;;20.77;54.30;100132.38;4909216;29;20491;-80
2021/09/15 04:41:53;;;;;;;9.05;5.88;;;;;;;20.79;54.78;100147.16;4909813;29;20052;-81
2021/09/15 04:44:20;;;;;;;9.93;6.50;;;;;;;20.77;54.34;100133.22;4913163;29;20040;-81
2021/09/15 04:46:48;;;;;;;8.32;5.13;;;;;;;20.82;54.34;100144.22;4913609;29;20083;-80
2021/09/15 04:49:15;;;;;;;5.05;4.28;;;;;;;20.80;52.87;100155.94;4915110;29;20055;-82
2021/09/15 04:51:46;;;;;;;15.88;5.97;;;;;;;20.79;53.10;100155.09;4914719;29;20044;-85
2021/09/15 04:54:14;;;;;;;7.85;5.43;;;;;;;20.60;52.41;100149.84;4915428;29;20063;-82
2021/09/15 04:56:43;;;;;;;11.43;6.10;;;;;;;20.88;52.62;100162.19;4914803;29;20440;-82
2021/09/15 04:59:14;;;;;;;10.38;5.13;;;;;;;21.00;54.34;100170.78;4915125;29;20052;-82
2021/09/15 05:01:40;;;;;;;7.80;5.85;;;;;;;21.03;54.90;100156.41;4914868;29;20474;-82
2021/09/15 05:04:09;;;;;;;8.60;4.13;;;;;;;20.60;54.85;100149.84;4914918;29;20044;-82
2021/09/15 05:06:37;;;;;;;11.57;5.88;;;;;;;20.51;54.01;100156.03;4914888;29;20050;-82
2021/09/15 05:09:04;;;;;;;9.85;6.03;;;;;;;20.44;54.13;100157.53;4915027;29;20052;-81
2021/09/15 05:11:38;;;;;;;7.68;6.63;;;;;;;20.73;52.83;100168.09;4915678;29;20107;-82
2021/09/15 05:14:05;;;;;;;10.85;5.90;;;;;;;20.61;52.84;100164.75;4915226;29;20040;-82
2021/09/15 05:16:32;;;;;;;12.20;5.38;;;;;;;20.59;52.88;100164.09;4915871;29;20076;-86
2021/09/15 05:19:00;;;;;;;11.57;6.15;;;;;;;20.82;52.67;100165.41;4917403;29;20041;-90
2021/09/15 05:21:27;;;;;;;9.52;6.15;;;;;;;20.72;53.99;100169.06;4931393;29;20047;-88
2021/09/15 05:23:54;;;;;;;10.02;5.55;;;;;;;20.74;55.14;100167.94;4934367;29;20039;-93
2021/09/15 05:26:21;;;;;;;8.35;5.85;;;;;;;20.63;57.51;100163.66;4923338;29;20032;-81
2021/09/15 05:28:48;;;;;;;8.43;5.47;;;;;;;20.67;58.63;100169.50;4925715;29;20048;-90
2021/09/15 05:31:16;;;;;;;11.35;6.40;;;;;;;20.89;58.30;100165.69;4918125;29;20045;-92
2021/09/15 05:33:49;;;;;;;10.75;6.38;;;;;;;20.86;59.38;100166.78;4915153;29;20044;-84
2021/09/15 05:36:19;;;;;;;8.37;5.07;;;;;;;20.95;58.73;100158.97;4919624;29;20049;-93
2021/09/15 05:38:47;;;;;;;7.18;5.63;;;;;;;20.98;59.43;100153.34;4922194;29;20040;-88
2021/09/15 05:41:18;;;;;;;8.63;5.47;;;;;;;21.14;58.98;100161.50;4917858;29;20044;-84
2021/09/15 05:43:47;;;;;;;8.57;5.32;;;;;;;21.15;59.12;100160.56;4916247;29;20062;-84
2021/09/15 05:46:16;;;;;;;8.30;6.82;;;;;;;21.22;59.07;100156.31;4915299;29;20046;-79
2021/09/15 05:48:43;;;;;;;14.18;7.68;;;;;;;21.20;58.86;100163.59;4916776;29;20499;-82
2021/09/15 05:51:10;;;;;;;9.48;6.30;;;;;;;21.34;58.02;100159.63;4911288;29;20143;-88
2021/09/15 05:53:39;;;;;;;9.30;6.32;;;;;;;21.56;56.18;100174.31;4917185;29;20411;-78
2021/09/15 05:56:06;;;;;;;11.55;5.78;;;;;;;21.90;54.75;100172.69;4917074;29;20051;-82
2021/09/15 05:58:32;;;;;;;10.95;6.10;;;;;;;21.87;55.03;100177.44;4918662;29;20099;-80
2021/09/15 06:01:02;;;;;;;8.13;5.55;;;;;;;21.80;55.72;100179.88;4926161;29;20550;-79
2021/09/15 06:03:29;;;;;;;6.25;5.50;;;;;;;21.69;55.77;100182.75;4915288;29;20056;-78
2021/09/15 06:06:28;;;;;;;10.32;5.70;;;;;;;21.72;54.65;100182.44;4889747;29;20499;-77
2021/09/15 06:08:56;;;;;;;8.20;5.93;;;;;;;21.69;54.44;100177.44;4914527;29;20050;-78
2021/09/15 06:11:23;;;;;;;7.10;5.50;;;;;;;21.78;53.79;100163.25;4914600;29;20043;-79
2021/09/15 06:13:50;;;;;;;8.10;5.93;;;;;;;21.81;54.03;100162.97;4915077;29;20115;-80
2021/09/15 06:16:17;;;;;;;11.45;5.18;;;;;;;22.04;53.25;100173.97;4911703;29;20052;-74
2021/09/15 06:18:44;;;;;;;10.90;5.85;;;;;;;22.09;52.85;100173.50;4905466;29;20052;-73
2021/09/15 06:21:20;;;;;;;7.32;5.43;;;;;;;22.12;52.48;100171.41;4914147;29;20067;-73
2021/09/15 06:24:10;;;;;;;10.02;6.28;;;;;;;22.50;51.44;100174.69;4909981;29;20048;-73
2021/09/15 06:26:37;;;;;;;14.00;5.57;;;;;;;22.86;50.41;100175.44;4910258;29;20044;-73
2021/09/15 06:29:04;;;;;;;8.52;5.57;;;;;;;23.14;49.37;100175.28;4910329;29;20487;-72
2021/09/15 06:31:31;;;;;;;7.78;5.65;;;;;;;23.49;48.82;100183.06;4912550;29;20056;-73
2021/09/15 06:33:59;;;;;;;8.68;6.00;;;;;;;23.63;47.82;100178.97;4916777;29;20526;-72
2021/09/15 06:36:25;;;;;;;10.75;5.45;;;;;;;23.88;47.26;100161.22;4918219;29;20087;-74
2021/09/15 06:38:55;;;;;;;10.60;6.13;;;;;;;24.02;46.28;100167.69;4917670;29;20040;-73
2021/09/15 06:41:22;;;;;;;9.63;5.35;;;;;;;24.12;46.26;100172.88;4916908;29;20514;-76
2021/09/15 06:43:49;;;;;;;7.63;5.32;;;;;;;24.28;46.26;100172.88;4919024;29;20055;-74
2021/09/15 06:46:16;;;;;;;13.50;5.88;;;;;;;24.27;45.94;100168.53;4932660;29;20048;-74
2021/09/15 06:48:42;;;;;;;14.63;5.60;;;;;;;24.36;47.37;100162.25;4934104;29;20048;-76
2021/09/15 06:51:09;;;;;;;13.38;5.00;;;;;;;24.53;46.87;100161.22;4932758;29;20052;-74
2021/09/15 06:53:36;;;;;;;15.10;6.80;;;;;;;24.61;45.59;100163.06;4917753;29;20052;-72
2021/09/15 06:56:03;;;;;;;14.20;6.90;;;;;;;24.80;44.08;100169.84;4926057;29;20131;-72
2021/09/15 06:58:30;;;;;;;12.13;5.90;;;;;;;24.62;44.72;100174.56;4925504;29;20040;-71
2021/09/15 07:00:57;;;;;;;5.90;4.85;;;;;;;24.41;44.18;100175.06;4919679;29;20491;-72
2021/09/15 07:03:24;;;;;;;7.95;5.82;;;;;;;24.63;44.63;100177.03;4917075;29;20574;-76
2021/09/15 07:05:50;;;;;;;4.90;3.83;;;;;;;24.35;45.92;100171.25;4916760;29;20048;-72
2021/09/15 07:08:18;;;;;;;10.10;4.70;;;;;;;24.26;46.43;100175.72;4917171;29;20036;-73
2021/09/15 07:10:46;;;;;;;5.65;3.92;;;;;;;24.94;45.13;100168.31;4913384;29;20258;-76
2021/09/15 07:13:13;;;;;;;4.97;4.47;;;;;;;24.80;45.31;100167.16;4911648;29;20051;-77
2021/09/15 07:15:40;;;;;;;5.10;4.05;;;;;;;24.47;46.77;100161.06;4909105;29;20056;-77
2021/09/15 07:18:07;;;;;;;6.90;4.55;;;;;;;24.78;45.73;100179.84;4915507;29;20040;-76
2021/09/15 07:20:35;;;;;;;6.25;4.28;;;;;;;24.51;46.35;100181.91;4914556;29;20052;-77
2021/09/15 07:23:02;;;;;;;7.70;3.97;;;;;;;24.96;45.62;100182.28;4915698;29;20135;-78
2021/09/15 07:25:29;;;;;;;6.05;4.50;;;;;;;25.45;44.50;100193.63;4915310;29;20048;-75
2021/09/15 07:27:55;;;;;;;5.50;4.25;;;;;;;25.22;45.58;100204.25;4917422;29;20087;-75
2021/09/15 07:30:23;;;;;;;9.93;3.85;;;;;;;25.37;44.55;100201.69;4911840;29;20044;-75
2021/09/15 07:32:49;;;;;;;8.85;3.75;;;;;;;25.20;46.64;100202.75;4915584;29;20052;-75
2021/09/15 07:35:16;;;;;;;6.03;4.72;;;;;;;25.32;46.42;100204.03;4912890;29;20043;-74
2021/09/15 07:37:43;;;;;;;9.13;4.38;;;;;;;25.28;47.40;100208.88;4915570;29;20071;-74
2021/09/15 07:40:11;;;;;;;10.48;4.28;;;;;;;25.04;49.09;100215.13;4915032;29;20040;-75
2021/09/15 07:42:38;;;;;;;5.60;4.18;;;;;;;25.19;48.79;100215.25;4915047;29;20055;-77
2021/09/15 07:45:07;;;;;;;7.50;4.05;;;;;;;25.11;50.03;100209.94;4916127;29;20044;-73
2021/09/15 07:47:35;;;;;;;4.57;3.60;;;;;;;24.96;51.13;100222.28;4915799;29;20040;-74
2021/09/15 07:50:04;;;;;;;9.10;4.68;;;;;;;24.94;51.53;100233.13;4914153;29;20119;-74
2021/09/15 07:52:33;;;;;;;5.30;4.05;;;;;;;25.57;48.98;100224.28;4914939;29;20098;-74
2021/09/15 07:55:01;;;;;;;29.33;6.10;;;;;;;25.30;51.89;100232.72;4916002;29;20060;-75
2021/09/15 07:57:27;;;;;;;18.88;4.78;;;;;;;25.84;50.71;100225.66;4916145;29;20119;-77
2021/09/15 07:59:54;;;;;;;10.48;4.18;;;;;;;25.48;51.55;100228.00;4916408;29;20046;-75
2021/09/15 08:02:21;;;;;;;5.22;4.00;;;;;;;26.03;50.08;100228.88;4916399;29;20133;-72
2021/09/15 08:04:48;;;;;;;12.38;4.88;;;;;;;26.28;47.97;100234.88;4916555;29;20044;-71
2021/09/15 08:07:14;;;;;;;7.45;4.85;;;;;;;26.17;50.40;100233.47;4918566;29;20410;-73
2021/09/15 08:09:41;;;;;;;10.32;4.15;;;;;;;26.10;50.66;100243.22;4918005;29;20044;-73
2021/09/15 08:12:09;;;;;;;9.95;4.63;;;;;;;26.60;47.84;100242.66;4910087;29;20456;-73
2021/09/15 08:14:37;;;;;;;7.68;4.55;;;;;;;26.28;50.41;100240.22;4915183;29;20103;-72
2021/09/15 08:17:03;;;;;;;8.38;5.05;;;;;;;26.58;49.66;100234.00;4915875;29;20507;-74
2021/09/15 08:19:30;;;;;;;10.82;4.85;;;;;;;26.61;50.11;100238.97;4915444;29;20492;-73
2021/09/15 08:21:58;;;;;;;4.95;4.55;;;;;;;25.77;52.55;100234.53;4915406;29;20472;-75
2021/09/15 08:24:25;;;;;;;5.68;4.55;;;;;;;26.54;50.05;100226.53;4915447;29;20052;-75
2021/09/15 08:26:51;;;;;;;10.52;6.30;;;;;;;26.69;50.34;100226.56;4916253;29;20059;-72
2021/09/15 08:29:18;;;;;;;6.47;5.75;;;;;;;26.06;51.65;100232.03;4915823;29;20063;-72
2021/09/15 08:31:45;;;;;;;7.70;4.70;;;;;;;26.09;51.76;100247.69;4913841;29;20048;-73
2021/09/15 08:34:11;;;;;;;6.32;5.03;;;;;;;26.26;51.25;100251.09;4915214;29;20048;-73
2021/09/15 08:36:38;;;;;;;6.32;4.95;;;;;;;26.67;49.87;100253.47;4915186;29;20511;-73
2021/09/15 08:39:05;;;;;;;9.63;5.68;;;;;;;26.85;49.33;100261.16;4915580;29;20484;-75
2021/09/15 08:41:32;;;;;;;8.55;5.28;;;;;;;26.80;49.22;100260.88;4914964;29;20044;-74
2021/09/15 08:43:59;;;;;;;7.35;5.15;;;;;;;26.60;50.26;100249.84;4914970;29;20044;-72
2021/09/15 08:46:27;;;;;;;8.25;6.45;;;;;;;26.34;50.78;100240.34;4915309;29;20495;-72
2021/09/15 08:48:58;;;;;;;8.32;5.85;;;;;;;26.32;50.94;100238.88;4916001;29;20059;-75
2021/09/15 08:51:26;;;;;;;6.50;5.00;;;;;;;26.05;51.47;100233.06;4914923;29;20491;-73
2021/09/15 08:53:55;;;;;;;9.63;5.82;;;;;;;26.24;50.99;100245.09;4915445;29;20036;-73
2021/09/15 08:56:23;;;;;;;12.20;5.32;;;;;;;26.12;51.75;100241.19;4913987;29;20072;-74
2021/09/15 08:58:50;;;;;;;17.67;4.90;;;;;;;26.41;50.00;100234.28;4915416;29;20831;-73
2021/09/15 09:01:19;;;;;;;9.20;5.03;;;;;;;26.43;50.09;100237.66;4914208;29;20510;-72
2021/09/15 09:03:52;;;;;;;9.35;5.32;;;;;;;27.22;48.35;100238.03;4914982;29;20043;-75
2021/09/15 09:06:21;;;;;;;8.27;5.32;;;;;;;27.03;48.40;100242.09;4916058;29;20107;-73
2021/09/15 09:08:53;;;;;;;5.90;5.30;;;;;;;26.72;50.12;100228.84;4918801;29;20048;-75
2021/09/15 09:11:23;;;;;;;8.00;4.85;;;;;;;26.56;50.44;100230.66;4919691;29;20079;-74
2021/09/15 09:13:54;;;;;;;9.73;5.53;;;;;;;27.42;48.15;100225.75;4919420;29;20377;-74
2021/09/15 09:16:36;;;;;;;10.88;5.28;;;;;;;27.02;48.53;100219.03;4919304;29;20835;-74
2021/09/15 09:19:06;;;;;;;5.07;4.63;;;;;;;26.39;49.58;100223.78;4919131;29;20571;-72
2021/09/15 09:21:35;;;;;;;6.03;5.13;;;;;;;26.60;49.18;100207.91;4918323;29;20680;-72
2021/09/15 09:24:04;;;;;;;13.10;5.50;;;;;;;26.55;49.59;100206.78;4918667;29;20487;-74
2021/09/15 09:27:03;;;;;;;6.45;5.05;;;;;;;27.41;47.52;100203.53;4926896;29;20541;-73
2021/09/15 09:29:37;;;;;;;6.40;5.38;;;;;;;26.52;49.86;100197.28;4915903;29;20040;-72
2021/09/15 09:32:08;;;;;;;8.27;5.72;;;;;;;26.54;50.48;100203.28;4917930;29;20044;-73
2021/09/15 09:34:46;;;;;;;10.50;6.07;;;;;;;27.11;48.64;100213.44;4918623;29;20052;-74
2021/09/15 09:37:17;;;;;;;8.85;6.53;;;;;;;28.00;45.26;100213.28;4912898;29;20044;-75
2021/09/15 09:39:52;;;;;;;8.93;5.20;;;;;;;28.18;45.06;100210.16;4917505;29;20052;-75
2021/09/15 09:42:22;;;;;;;7.22;6.22;;;;;;;27.69;46.69;100194.78;4917171;29;20116;-75
2021/09/15 09:44:53;;;;;;;7.13;5.70;;;;;;;26.74;49.28;100192.06;4918503;29;20048;-73
2021/09/15 09:47:23;;;;;;;11.95;7.65;;;;;;;26.44;50.02;100188.53;4918001;29;20044;-74
2021/09/15 09:50:11;;;;;;;7.65;5.70;;;;;;;26.58;48.92;100195.72;4917316;29;20049;-74
2021/09/15 09:53:00;;;;;;;7.57;5.28;;;;;;;27.06;47.29;100194.41;4916494;29;20419;-74
2021/09/15 09:55:36;;;;;;;9.63;5.07;;;;;;;27.98;45.41;100182.34;4918582;29;20036;-76
2021/09/15 09:58:05;;;;;;;7.05;5.78;;;;;;;27.75;46.07;100194.09;4917246;29;20044;-75
2021/09/15 10:00:32;;;;;;;12.23;6.47;;;;;;;27.08;47.10;100195.06;4917856;29;20099;-74
2021/09/15 10:03:03;;;;;;;10.15;5.75;;;;;;;28.18;44.84;100186.06;4918666;29;20055;-74
2021/09/15 10:05:30;;;;;;;10.50;5.45;;;;;;;28.61;43.08;100180.66;4917660;29;20099;-74
2021/09/15 10:07:56;;;;;;;11.52;6.65;;;;;;;27.55;46.15;100183.09;4918720;29;20052;-75
2021/09/15 10:10:23;;;;;;;5.30;4.80;;;;;;;28.65;43.04;100180.03;4917960;29;20099;-76
2021/09/15 10:12:51;;;;;;;9.90;6.00;;;;;;;29.35;41.80;100177.34;4918120;29;20520;-74
2021/09/15 10:15:19;;;;;;;7.40;5.72;;;;;;;30.13;38.87;100170.56;4927508;29;20044;-75
2021/09/15 10:17:54;;;;;;;8.13;5.50;;;;;;;29.03;42.12;100165.44;4918260;29;20523;-75
2021/09/15 10:20:26;;;;;;;6.10;4.93;;;;;;;28.46;43.14;100170.03;4916844;29;20115;-74
2021/09/15 10:22:54;;;;;;;9.18;5.70;;;;;;;28.91;42.09;100167.81;4915863;29;20048;-74
2021/09/15 10:25:40;;;;;;;8.82;5.45;;;;;;;28.71;42.22;100163.19;4916206;29;20063;-74
2021/09/15 10:28:10;;;;;;;11.15;6.13;;;;;;;28.56;42.72;100149.06;4909402;29;20036;-74
2021/09/15 10:30:41;;;;;;;9.02;5.80;;;;;;;28.66;41.94;100148.72;4911971;29;20162;-74
2021/09/15 10:33:37;;;;;;;14.15;5.65;;;;;;;29.23;40.48;100143.03;4914378;29;20148;-75
2021/09/15 10:36:12;;;;;;;9.63;5.80;;;;;;;30.00;39.21;100143.66;4915691;29;20047;-75
2021/09/15 10:38:55;;;;;;;14.25;6.72;;;;;;;29.72;39.38;100146.50;4935152;29;20048;-76
2021/09/15 10:41:43;;;;;;;8.05;5.57;;;;;;;29.02;40.47;100151.19;4917211;29;20036;-75
2021/09/15 10:44:15;;;;;;;8.88;5.65;;;;;;;29.57;39.30;100141.31;4920264;29;20048;-76
2021/09/15 10:46:43;;;;;;;9.10;5.22;;;;;;;30.38;37.80;100137.69;4921310;29;20048;-75
2021/09/15 10:49:17;;;;;;;7.35;4.78;;;;;;;30.26;37.50;100127.56;4916945;29;20064;-72
2021/09/15 10:52:09;;;;;;;8.25;6.15;;;;;;;27.83;42.75;100126.16;4917289;29;20064;-73
2021/09/15 10:54:52;;;;;;;8.68;4.95;;;;;;;28.67;40.87;100128.91;4911805;29;20084;-75
2021/09/15 10:57:28;;;;;;;5.30;4.80;;;;;;;28.15;43.08;100130.97;4917852;29;20440;-74
2021/09/15 11:00:00;;;;;;;7.50;5.53;;;;;;;28.18;42.67;100137.81;4913459;29;20040;-74
2021/09/15 11:02:31;;;;;;;13.02;6.10;;;;;;;27.56;45.33;100131.22;4914722;29;20099;-74
2021/09/15 11:05:20;;;;;;;9.05;5.88;;;;;;;28.51;43.44;100130.03;4917150;29;20503;-76
2021/09/15 11:07:46;;;;;;;10.18;5.28;;;;;;;28.76;42.46;100126.88;4913004;29;20056;-77
2021/09/15 11:10:34;;;;;;;10.20;5.07;;;;;;;28.01;43.02;100123.84;4909510;29;20443;-76
2021/09/15 11:13:27;;;;;;;7.90;6.03;;;;;;;27.65;45.11;100124.72;4901150;29;20071;-77
2021/09/15 11:15:56;;;;;;;10.23;6.13;;;;;;;27.92;44.51;100128.50;4900927;29;20100;-77
2021/09/15 11:18:27;;;;;;;7.18;5.30;;;;;;;28.49;42.55;100126.72;4913526;29;20048;-74
2021/09/15 11:20:57;;;;;;;12.27;5.82;;;;;;;28.87;41.67;100129.00;4902748;29;20655;-76
2021/09/15 11:23:25;;;;;;;10.60;5.80;;;;;;;27.88;43.75;100132.59;4920299;29;20087;-74
2021/09/15 11:25:52;;;;;;;13.23;5.03;;;;;;;28.62;42.29;100132.19;4910521;29;20046;-74
2021/09/15 11:28:23;;;;;;;14.73;5.50;;;;;;;28.54;41.73;100134.16;4912183;29;20511;-74
2021/09/15 11:30:49;;;;;;;11.57;5.07;;;;;;;28.15;42.62;100125.63;4911225;29;20044;-74
2021/09/15 11:33:25;;;;;;;12.05;5.25;;;;;;;27.90;43.14;100116.31;4910391;29;20052;-74
2021/09/15 11:35:57;;;;;;;17.27;6.15;;;;;;;27.73;43.81;100109.56;4909368;29;20044;-74
2021/09/15 11:38:27;;;;;;;7.20;5.93;;;;;;;28.59;41.85;100111.09;4910636;29;20044;-75
2021/09/15 11:41:08;;;;;;;8.63;5.70;;;;;;;29.26;40.34;100103.41;4910511;29;20048;-76
2021/09/15 11:43:38;;;;;;;7.75;5.15;;;;;;;28.09;42.67;100106.81;4909777;29;20173;-76
2021/09/15 11:46:05;;;;;;;8.85;4.70;;;;;;;28.39;41.65;100104.78;4903143;29;20550;-76